Time;durP1;ratioP1;P1;durP2;ratioP2;P2;SDS_P1;SDS_P2;PMS_P1;PMS_P2;Temp;Humidity;BMP_temperature;BMP_pressure;BME280_temperature;BME280_humidity;BME280_pressure;Samples;Min_cycle;Max_cycle;Signal;HPM_P1;HPM_P2
2022/08/01 00:00:25;;;;;;;4.55;2.05;;;;;;;18.78;100.00;95822.06;1029997;28;20050;-72
2022/08/01 00:00:55;;;;;;;2.95;2.00;;;;;;;18.76;100.00;95826.88;1025893;28;20026;-71
2022/08/01 00:01:26;;;;;;;3.92;2.00;;;;;;;18.53;100.00;95781.81;1029145;28;20117;-72
2022/08/01 00:01:56;;;;;;;4.53;2.13;;;;;;;18.77;100.00;95821.25;1022024;28;20394;-72
2022/08/01 00:02:27;;;;;;;2.42;2.05;;;;;;;18.76;100.00;95822.34;1022102;28;20031;-72
2022/08/01 00:02:58;;;;;;;3.28;2.85;;;;;;;18.78;100.00;95819.41;1021801;29;20094;-72
2022/08/01 00:03:28;;;;;;;3.90;2.50;;;;;;;18.76;100.00;95825.00;1018302;28;20564;-71
2022/08/01 00:03:59;;;;;;;3.67;2.20;;;;;;;18.76;100.00;95824.22;1022122;29;20027;-71
2022/08/01 00:04:29;;;;;;;8.88;2.42;;;;;;;18.73;100.00;95824.84;1018112;29;20386;-71
2022/08/01 00:05:01;;;;;;;2.60;2.03;;;;;;;18.72;100.00;95823.28;1022003;28;20675;-70
2022/08/01 00:05:31;;;;;;;3.17;2.33;;;;;;;18.73;100.00;95824.84;1026095;28;20034;-71
2022/08/01 00:06:02;;;;;;;2.45;2.25;;;;;;;18.76;100.00;95829.56;1026177;28;20137;-72
2022/08/01 00:06:32;;;;;;;2.78;2.17;;;;;;;18.74;100.00;95821.09;1026081;28;20053;-72
2022/08/01 00:07:03;;;;;;;4.95;2.35;;;;;;;18.71;100.00;95821.69;1029735;28;20120;-72
2022/08/01 00:07:34;;;;;;;2.45;2.03;;;;;;;18.64;100.00;95816.06;1030195;28;20433;-71
2022/08/01 00:08:04;;;;;;;4.97;2.60;;;;;;;18.69;100.00;95834.53;1025831;28;20473;-71
2022/08/01 00:08:35;;;;;;;3.17;2.50;;;;;;;18.66;100.00;95830.59;1021899;29;20497;-72
2022/08/01 00:09:05;;;;;;;2.70;2.20;;;;;;;18.67;100.00;95821.53;1021826;29;20027;-71
2022/08/01 00:09:36;;;;;;;4.38;2.38;;;;;;;18.65;100.00;95831.72;1022006;28;20090;-71
2022/08/01 00:10:08;;;;;;;2.63;2.30;;;;;;;18.63;100.00;95830.44;1025876;28;20389;-73
2022/08/01 00:10:39;;;;;;;2.85;2.42;;;;;;;18.63;100.00;95830.44;1025924;28;20022;-72
2022/08/01 00:11:10;;;;;;;3.08;2.22;;;;;;;18.63;100.00;95831.22;1025153;28;20019;-70
2022/08/01 00:11:41;;;;;;;3.55;2.00;;;;;;;18.61;100.00;95828.09;1026218;28;20026;-72
2022/08/01 00:12:12;;;;;;;3.33;2.50;;;;;;;18.63;100.00;95830.44;1026285;28;20023;-72
2022/08/01 00:12:42;;;;;;;10.38;2.60;;;;;;;18.63;100.00;95836.53;1029938;28;20030;-71
2022/08/01 00:13:13;;;;;;;2.97;2.10;;;;;;;18.64;100.00;95832.00;1029835;28;20408;-72
2022/08/01 00:13:43;;;;;;;6.80;2.58;;;;;;;18.63;100.00;95830.44;1029860;28;20053;-71
2022/08/01 00:14:14;;;;;;;2.97;2.40;;;;;;;18.61;100.00;95831.56;1034152;28;20017;-72
2022/08/01 00:14:44;;;;;;;4.15;2.30;;;;;;;18.61;100.00;95834.22;1029871;28;20022;-71
2022/08/01 00:15:15;;;;;;;3.92;2.50;;;;;;;18.59;100.00;95824.97;1030100;28;20467;-72
2022/08/01 00:15:46;;;;;;;3.85;2.90;;;;;;;18.66;100.00;95827.16;1025914;28;20041;-72
2022/08/01 00:16:16;;;;;;;6.00;2.42;;;;;;;18.63;100.00;95830.44;1026102;28;20033;-72
2022/08/01 00:16:47;;;;;;;2.42;2.08;;;;;;;18.59;100.00;95824.97;1030057;28;20108;-73
2022/08/01 00:17:17;;;;;;;4.10;2.20;;;;;;;18.59;100.00;95828.41;1030268;28;20126;-74
2022/08/01 00:17:48;;;;;;;2.20;2.03;;;;;;;18.59;100.00;95831.06;1033974;28;20025;-72
2022/08/01 00:18:18;;;;;;;6.18;2.20;;;;;;;18.59;100.00;95824.97;1030450;28;20673;-72
2022/08/01 00:18:49;;;;;;;2.92;2.20;;;;;;;18.54;100.00;95817.94;1030259;28;20054;-72
2022/08/01 00:19:20;;;;;;;2.53;2.33;;;;;;;18.61;100.00;95828.09;1026096;28;20027;-73
2022/08/01 00:19:50;;;;;;;7.63;2.53;;;;;;;18.53;100.00;95820.91;1025940;28;20046;-72
2022/08/01 00:20:21;;;;;;;3.00;2.40;;;;;;;18.60;100.00;95829.97;1018030;29;20573;-71
2022/08/01 00:20:51;;;;;;;3.60;2.55;;;;;;;18.59;100.00;95828.41;1018376;28;20453;-73
2022/08/01 00:21:22;;;;;;;4.60;2.40;;;;;;;18.58;100.00;95829.50;1025293;28;20635;-72
2022/08/01 00:21:52;;;;;;;3.05;2.15;;;;;;;18.59;100.00;95833.72;1025863;28;20027;-72
2022/08/01 00:22:23;;;;;;;4.18;2.13;;;;;;;18.50;100.00;95816.19;1030025;28;20054;-72
2022/08/01 00:22:53;;;;;;;6.15;2.30;;;;;;;18.57;100.00;95833.25;1030032;28;20101;-72
2022/08/01 00:23:24;;;;;;;3.13;2.42;;;;;;;18.56;100.00;95826.38;1029995;28;20034;-70
2022/08/01 00:23:54;;;;;;;8.45;2.80;;;;;;;18.51;100.00;95829.19;1025643;28;20418;-70
2022/08/01 00:24:25;;;;;;;3.78;2.33;;;;;;;18.54;100.00;95827.78;1030036;28;20060;-71
2022/08/01 00:24:55;;;;;;;3.75;2.38;;;;;;;18.53;100.00;95829.66;1026019;28;20553;-70
2022/08/01 00:25:26;;;;;;;3.30;2.33;;;;;;;18.53;100.00;95832.31;1025928;28;20027;-71
2022/08/01 00:25:56;;;;;;;4.18;2.33;;;;;;;18.54;100.00;95836.53;1029601;28;20072;-72
2022/08/01 00:26:27;;;;;;;3.40;2.25;;;;;;;18.58;100.00;95834.81;1029990;28;20555;-71
2022/08/01 00:26:57;;;;;;;3.40;2.33;;;;;;;18.58;100.00;95834.81;1029768;28;20145;-72
2022/08/01 00:27:28;;;;;;;2.20;2.00;;;;;;;18.60;100.00;95826.53;1029898;28;20034;-71
2022/08/01 00:27:58;;;;;;;5.45;2.55;;;;;;;18.64;100.00;95838.09;1028957;28;20651;-71
2022/08/01 00:28:29;;;;;;;3.30;2.20;;;;;;;18.63;100.00;95835.75;1030031;28;20022;-71
2022/08/01 00:28:59;;;;;;;3.90;2.20;;;;;;;18.64;100.00;95830.13;1032579;28;20030;-71
2022/08/01 00:29:30;;;;;;;7.07;2.70;;;;;;;18.64;100.00;95832.78;1029933;28;20027;-71
2022/08/01 00:30:00;;;;;;;5.25;2.35;;;;;;;18.65;100.00;95836.25;1025801;28;20492;-71
2022/08/01 00:30:31;;;;;;;2.30;2.10;;;;;;;18.64;100.00;95837.31;1029901;28;20030;-71
2022/08/01 00:31:01;;;;;;;6.00;2.35;;;;;;;18.63;100.00;95835.75;1034057;28;20507;-73
2022/08/01 00:31:31;;;;;;;5.78;2.70;;;;;;;18.60;100.00;95827.31;1029226;28;20369;-69
2022/08/01 00:32:02;;;;;;;5.55;2.65;;;;;;;18.59;100.00;95830.28;1024042;28;20432;-72
2022/08/01 00:32:33;;;;;;;3.03;2.72;;;;;;;18.58;100.00;95834.81;1021977;28;20532;-71
2022/08/01 00:33:03;;;;;;;2.70;2.25;;;;;;;18.59;100.00;95835.59;1026053;28;20023;-73
2022/08/01 00:33:34;;;;;;;5.30;2.42;;;;;;;18.58;100.00;95836.72;1029957;28;20573;-72
2022/08/01 00:34:04;;;;;;;6.15;2.30;;;;;;;18.54;100.00;95828.56;1029728;28;20034;-71
2022/08/01 00:34:34;;;;;;;5.22;2.20;;;;;;;18.52;100.00;95833.41;1033915;28;20472;-71
2022/08/01 00:35:06;;;;;;;4.20;2.47;;;;;;;18.57;100.00;95833.25;1029915;28;20041;-72
2022/08/01 00:35:36;;;;;;;2.97;2.28;;;;;;;18.55;100.00;95835.44;1025819;28;20026;-72
2022/08/01 00:36:07;;;;;;;2.58;2.28;;;;;;;18.55;100.00;95830.13;1026051;28;20035;-72
2022/08/01 00:36:37;;;;;;;2.78;2.45;;;;;;;18.63;100.00;95830.44;1026040;28;20103;-72
2022/08/01 00:37:08;;;;;;;3.65;2.35;;;;;;;18.42;100.00;95809.78;1025923;28;20027;-72
2022/08/01 00:37:38;;;;;;;4.55;2.38;;;;;;;18.55;100.00;95832.78;1026045;28;20058;-73
2022/08/01 00:38:08;;;;;;;3.85;2.13;;;;;;;18.52;100.00;95828.09;1021959;29;20019;-73
2022/08/01 00:38:39;;;;;;;5.65;2.20;;;;;;;18.49;100.00;95835.91;1021921;28;20046;-73
2022/08/01 00:39:09;;;;;;;8.90;2.63;;;;;;;18.44;100.00;95825.41;1024550;28;20346;-72
2022/08/01 00:39:40;;;;;;;4.10;2.53;;;;;;;18.48;100.00;95829.81;1026147;28;20075;-71
2022/08/01 00:40:10;;;;;;;2.63;2.30;;;;;;;18.49;100.00;95828.72;1029985;28;20045;-72
2022/08/01 00:40:41;;;;;;;2.70;2.38;;;;;;;18.35;100.00;95804.94;1029745;28;20046;-73
2022/08/01 00:41:11;;;;;;;3.90;2.30;;;;;;;18.47;100.00;95825.56;1029246;28;20022;-72
2022/08/01 00:41:42;;;;;;;2.47;2.22;;;;;;;18.47;100.00;95828.22;1029560;28;20026;-72
2022/08/01 00:42:12;;;;;;;2.35;2.13;;;;;;;18.40;100.00;95817.28;1029918;28;20559;-71
2022/08/01 00:42:43;;;;;;;5.28;2.13;;;;;;;18.46;100.00;95828.56;1029535;28;20026;-72
2022/08/01 00:43:13;;;;;;;4.03;2.20;;;;;;;18.47;100.00;95830.88;1028263;28;20030;-73
2022/08/01 00:43:44;;;;;;;6.32;2.45;;;;;;;18.44;100.00;95820.88;1029717;28;20021;-71
2022/08/01 00:44:14;;;;;;;2.80;2.08;;;;;;;18.50;100.00;95827.59;1029698;28;20026;-71
2022/08/01 00:44:45;;;;;;;3.42;2.47;;;;;;;18.49;100.00;95820.75;1029911;28;20218;-70
2022/08/01 00:45:15;;;;;;;2.85;2.00;;;;;;;18.47;100.00;95822.13;1033935;28;20018;-72
2022/08/01 00:45:46;;;;;;;4.22;2.20;;;;;;;18.47;100.00;95822.91;1033863;28;20022;-72
2022/08/01 00:46:16;;;;;;;3.65;2.22;;;;;;;18.46;100.00;95831.22;1025797;28;20030;-71
2022/08/01 00:46:47;;;;;;;4.82;2.17;;;;;;;18.45;100.00;95825.13;1025692;28;20034;-72
2022/08/01 00:47:17;;;;;;;5.40;2.47;;;;;;;18.42;100.00;95831.03;1018001;29;20390;-72
2022/08/01 00:47:48;;;;;;;3.97;2.47;;;;;;;18.44;100.00;95828.84;1021877;28;20110;-72
2022/08/01 00:48:18;;;;;;;2.50;1.90;;;;;;;18.45;100.00;95821.69;1021935;29;20456;-71
2022/08/01 00:48:49;;;;;;;5.55;2.33;;;;;;;18.46;100.00;95828.56;1021873;28;20026;-72
2022/08/01 00:49:19;;;;;;;2.90;2.10;;;;;;;18.39;100.00;95815.72;1021776;29;20449;-72
2022/08/01 00:49:49;;;;;;;2.72;2.10;;;;;;;18.39;100.00;95815.72;1025980;28;20011;-72
2022/08/01 00:50:20;;;;;;;3.08;2.40;;;;;;;18.44;100.00;95828.06;1025866;28;20010;-73
2022/08/01 00:50:50;;;;;;;2.97;1.85;;;;;;;18.37;100.00;95818.66;1025638;28;20038;-71
2022/08/01 00:51:21;;;;;;;3.00;1.98;;;;;;;18.43;100.00;95824.63;1025217;28;20023;-72
2022/08/01 00:51:52;;;;;;;4.65;2.55;;;;;;;18.42;100.00;95824.94;1029942;28;20646;-71
2022/08/01 00:52:22;;;;;;;2.35;1.98;;;;;;;18.44;100.00;95823.53;1021832;29;20441;-71
2022/08/01 00:52:53;;;;;;;7.10;2.50;;;;;;;18.43;100.00;95823.84;1017671;29;20413;-73
2022/08/01 00:53:24;;;;;;;8.50;2.15;;;;;;;18.43;100.00;95818.53;1021903;29;20239;-72
2022/08/01 00:53:55;;;;;;;3.63;2.08;;;;;;;18.40;100.00;95821.81;1022331;28;20028;-73
2022/08/01 00:54:26;;;;;;;3.90;2.42;;;;;;;18.43;100.00;95821.19;1029817;28;20038;-72
2022/08/01 00:54:56;;;;;;;2.92;2.10;;;;;;;18.40;100.00;95819.94;1025678;28;20077;-72
2022/08/01 00:55:27;;;;;;;2.63;2.35;;;;;;;18.40;100.00;95821.81;1025960;28;20073;-71
2022/08/01 00:55:58;;;;;;;5.60;2.28;;;;;;;18.44;100.00;95828.84;1020706;28;20035;-70
2022/08/01 00:56:28;;;;;;;8.85;2.20;;;;;;;18.42;100.00;95823.06;1018055;29;20091;-71
2022/08/01 00:56:59;;;;;;;5.05;1.98;;;;;;;18.40;100.00;95827.13;1013746;29;20422;-71
2022/08/01 00:57:29;;;;;;;3.55;2.47;;;;;;;18.37;100.00;95820.56;1010263;29;20064;-71
2022/08/01 00:58:00;;;;;;;2.55;2.08;;;;;;;18.43;100.00;95821.19;1021438;28;20023;-72
2022/08/01 00:58:32;;;;;;;4.68;2.30;;;;;;;18.44;100.00;95820.88;1014061;29;20119;-70
2022/08/01 00:59:02;;;;;;;4.00;2.30;;;;;;;18.43;100.00;95821.97;1010020;29;20279;-71
2022/08/01 00:59:33;;;;;;;4.03;2.08;;;;;;;18.42;100.00;95820.41;1018470;29;20115;-71
2022/08/01 01:00:04;;;;;;;4.80;2.20;;;;;;;18.41;100.00;95821.53;1022584;29;20023;-71
2022/08/01 01:00:35;;;;;;;3.90;2.70;;;;;;;18.33;100.00;95811.63;1022766;29;20102;-71
2022/08/01 01:01:05;;;;;;;6.32;2.55;;;;;;;18.36;100.00;95817.13;1018047;29;20446;-71
2022/08/01 01:01:36;;;;;;;2.22;2.03;;;;;;;18.31;100.00;95813.84;1019019;28;20410;-72
2022/08/01 01:02:06;;;;;;;3.88;2.10;;;;;;;18.37;100.00;95823.22;1026656;28;20063;-72
2022/08/01 01:02:37;;;;;;;2.67;2.03;;;;;;;18.34;100.00;95823.81;1026956;28;20026;-72
2022/08/01 01:03:07;;;;;;;6.18;2.40;;;;;;;18.34;100.00;95819.31;1034522;28;20257;-71
2022/08/01 01:03:38;;;;;;;4.65;2.22;;;;;;;18.31;100.00;95819.16;1030492;28;20053;-71
2022/08/01 01:04:08;;;;;;;2.17;1.98;;;;;;;18.30;100.00;95821.00;1026451;28;20396;-73
2022/08/01 01:04:39;;;;;;;5.18;2.40;;;;;;;18.30;100.00;95817.56;1026611;28;20011;-71
2022/08/01 01:05:09;;;;;;;2.80;2.25;;;;;;;18.30;100.00;95822.88;1026342;28;20055;-70
2022/08/01 01:06:10;;;;;;;4.75;1.98;;;;;;;18.28;100.00;95817.13;1026670;28;20381;-71
2022/08/01 01:07:01;;;;;;;2.25;2.05;;;;;;;18.30;100.00;95817.56;1010619;29;20381;-72
2022/08/01 01:07:42;;;;;;;3.53;2.13;;;;;;;18.22;100.00;95805.84;1030546;28;20038;-71
2022/08/01 01:08:19;;;;;;;6.53;2.33;;;;;;;18.29;100.00;95810.69;1026278;28;20105;-72
2022/08/01 01:09:11;;;;;;;3.72;2.33;;;;;;;18.38;100.00;95819.47;1026758;28;20023;-71
2022/08/01 01:09:52;;;;;;;3.53;2.10;;;;;;;18.35;100.00;95820.09;1025367;28;20008;-72
2022/08/01 01:10:31;;;;;;;7.22;2.50;;;;;;;18.31;100.00;95813.84;1022962;28;20016;-71
2022/08/01 01:11:07;;;;;;;4.97;2.03;;;;;;;18.30;100.00;95823.66;1026650;28;20015;-70
2022/08/01 01:12:00;;;;;;;6.22;2.67;;;;;;;18.26;100.00;95811.31;1026012;28;20030;-71
2022/08/01 01:12:42;;;;;;;4.57;2.30;;;;;;;18.19;100.00;95816.31;1026717;28;20061;-71
2022/08/01 01:13:18;;;;;;;3.80;2.10;;;;;;;18.21;100.00;95814.09;1027068;28;20050;-72
2022/08/01 01:13:54;;;;;;;5.28;2.45;;;;;;;18.24;100.00;95821.47;1023120;28;20028;-72
2022/08/01 01:14:46;;;;;;;2.30;1.85;;;;;;;18.24;100.00;95824.13;1022625;29;20377;-71
2022/08/01 01:15:23;;;;;;;2.17;1.92;;;;;;;18.21;100.00;95824.72;1014591;29;20136;-71
2022/08/01 01:16:18;;;;;;;6.40;2.63;;;;;;;18.17;100.00;95816.59;1026515;28;20528;-71
2022/08/01 01:16:48;;;;;;;2.90;2.20;;;;;;;18.07;100.00;95814.22;1028138;28;20118;-73
2022/08/01 01:17:24;;;;;;;4.15;2.50;;;;;;;18.13;100.00;95824.41;1030677;28;20021;-72
2022/08/01 01:18:02;;;;;;;5.97;2.88;;;;;;;18.11;100.00;95815.97;1026731;28;20849;-71
2022/08/01 01:18:49;;;;;;;2.78;2.13;;;;;;;18.18;100.00;95825.38;1026659;28;20575;-74
2022/08/01 01:19:22;;;;;;;2.20;2.00;;;;;;;18.16;100.00;95827.53;1022621;28;20659;-71
2022/08/01 01:19:54;;;;;;;6.22;2.10;;;;;;;18.14;100.00;95823.34;1018800;29;20212;-73
2022/08/01 01:20:28;;;;;;;4.80;2.00;;;;;;;18.13;100.00;95820.97;1026490;28;20031;-72
2022/08/01 01:21:21;;;;;;;2.70;2.05;;;;;;;18.13;100.00;95831.59;1026750;28;20015;-71
2022/08/01 01:22:08;;;;;;;2.03;1.92;;;;;;;18.13;100.00;95820.97;1017875;29;20043;-71
2022/08/01 01:22:57;;;;;;;2.30;1.80;;;;;;;18.14;100.00;95833.16;1018448;28;20156;-71
2022/08/01 01:23:37;;;;;;;3.10;2.28;;;;;;;18.11;100.00;95831.91;1026747;28;20015;-73
2022/08/01 01:24:19;;;;;;;3.35;2.00;;;;;;;18.11;100.00;95829.25;1019820;28;20119;-72
2022/08/01 01:24:55;;;;;;;3.58;2.20;;;;;;;18.12;100.00;95824.72;1018921;29;20020;-71
2022/08/01 01:25:54;;;;;;;4.60;1.95;;;;;;;18.12;100.00;95822.06;1018564;28;20016;-72
2022/08/01 01:26:27;;;;;;;2.40;2.10;;;;;;;18.13;100.00;95823.63;1031093;28;20014;-71
2022/08/01 01:27:16;;;;;;;7.35;2.20;;;;;;;18.11;100.00;95829.25;1034784;28;20028;-71
2022/08/01 01:28:11;;;;;;;4.00;2.00;;;;;;;18.14;100.00;95826.00;1034897;28;20026;-72
2022/08/01 01:29:00;;;;;;;5.85;2.15;;;;;;;18.11;100.00;95820.50;1031217;28;20064;-72
2022/08/01 01:29:41;;;;;;;5.15;2.88;;;;;;;18.11;100.00;95821.28;1034785;28;20526;-72
2022/08/01 01:30:11;;;;;;;5.47;2.45;;;;;;;18.12;100.00;95828.16;1030818;28;20018;-72
2022/08/01 01:30:43;;;;;;;5.03;2.33;;;;;;;18.09;100.00;95822.69;1030616;28;20022;-71
2022/08/01 01:31:14;;;;;;;3.05;2.10;;;;;;;18.07;100.00;95825.63;1026148;28;20023;-70
2022/08/01 01:32:02;;;;;;;6.60;2.40;;;;;;;18.07;100.00;95822.97;1023044;28;20038;-72
2022/08/01 01:32:38;;;;;;;4.88;2.33;;;;;;;18.07;100.00;95822.19;1018590;29;20019;-72
2022/08/01 01:33:09;;;;;;;3.63;2.03;;;;;;;18.08;100.00;95827.22;1022731;29;20025;-72
2022/08/01 01:33:40;;;;;;;2.55;2.03;;;;;;;18.08;100.00;95827.22;1022010;29;20063;-72
2022/08/01 01:34:12;;;;;;;2.55;2.35;;;;;;;18.07;100.00;95819.53;1024351;28;20070;-72
2022/08/01 01:34:43;;;;;;;3.22;2.10;;;;;;;18.11;100.00;95825.81;1027103;28;20023;-71
2022/08/01 01:35:20;;;;;;;4.05;2.22;;;;;;;18.10;100.00;95824.25;1022528;29;20023;-72
2022/08/01 01:35:52;;;;;;;3.45;2.22;;;;;;;18.04;100.00;95820.16;1014739;29;20055;-69
2022/08/01 01:36:23;;;;;;;2.13;1.90;;;;;;;18.05;100.00;95827.81;1022645;29;20027;-72
2022/08/01 01:36:54;;;;;;;2.72;2.10;;;;;;;17.99;100.00;95817.66;1022705;29;20011;-73
2022/08/01 01:37:25;;;;;;;7.50;2.30;;;;;;;18.04;100.00;95825.47;1022542;29;20019;-70
2022/08/01 01:38:01;;;;;;;11.43;2.55;;;;;;;17.97;100.00;95817.94;1019236;29;20751;-70
2022/08/01 01:38:33;;;;;;;5.53;2.45;;;;;;;18.01;100.00;95826.88;1022666;28;20043;-72
2022/08/01 01:39:04;;;;;;;3.75;1.92;;;;;;;17.97;100.00;95825.91;1022504;28;20021;-74
2022/08/01 01:39:34;;;;;;;6.40;2.13;;;;;;;17.98;100.00;95827.50;1010953;29;20505;-72
2022/08/01 01:40:06;;;;;;;7.18;2.20;;;;;;;17.96;100.00;95823.56;1018741;29;20023;-71
2022/08/01 01:40:37;;;;;;;4.22;2.00;;;;;;;17.97;100.00;95825.13;1022572;28;20023;-72
2022/08/01 01:41:08;;;;;;;2.25;2.03;;;;;;;17.96;100.00;95818.25;1018203;29;20028;-72
2022/08/01 01:41:38;;;;;;;2.92;2.00;;;;;;;17.98;100.00;95827.50;1010976;29;20111;-72
2022/08/01 01:42:09;;;;;;;2.47;2.05;;;;;;;17.87;100.00;95815.56;1011051;29;20033;-72
2022/08/01 01:42:40;;;;;;;3.63;1.80;;;;;;;17.94;100.00;95831.88;1022051;29;20026;-72
2022/08/01 01:43:11;;;;;;;9.00;2.30;;;;;;;17.84;100.00;95821.50;1021164;28;20046;-71
2022/08/01 01:43:41;;;;;;;2.30;2.10;;;;;;;17.84;100.00;95827.59;1022554;29;20397;-72
2022/08/01 01:44:12;;;;;;;2.38;2.10;;;;;;;17.86;100.00;95830.72;1012729;29;20028;-74
2022/08/01 01:44:44;;;;;;;2.60;2.13;;;;;;;17.85;100.00;95829.16;1015087;29;20023;-73
2022/08/01 01:45:15;;;;;;;3.67;2.08;;;;;;;17.84;100.00;95826.78;1015176;29;20024;-72
2022/08/01 01:45:46;;;;;;;2.33;2.08;;;;;;;17.88;100.00;95838.41;1019303;28;20072;-72
2022/08/01 01:46:17;;;;;;;4.15;2.15;;;;;;;17.98;100.00;95835.47;1022114;29;20021;-72
2022/08/01 01:46:48;;;;;;;2.30;2.08;;;;;;;18.00;100.00;95829.84;1018708;29;20465;-72
2022/08/01 01:47:18;;;;;;;2.70;2.30;;;;;;;17.97;100.00;95831.22;1018578;29;20019;-72
2022/08/01 01:47:49;;;;;;;2.38;2.17;;;;;;;17.96;100.00;95834.97;1018690;28;20088;-72
2022/08/01 01:48:20;;;;;;;4.15;1.63;;;;;;;17.94;100.00;95831.88;1018751;29;20457;-73
2022/08/01 01:48:50;;;;;;;5.03;2.42;;;;;;;17.86;100.00;95821.97;1014999;29;20036;-72
2022/08/01 01:49:24;;;;;;;3.65;2.42;;;;;;;17.91;100.00;95827.16;1016922;29;20849;-73
2022/08/01 01:49:54;;;;;;;2.72;2.25;;;;;;;17.92;100.00;95825.28;1026663;28;20058;-72
2022/08/01 01:50:25;;;;;;;3.30;2.30;;;;;;;17.90;100.00;95830.88;1018782;29;20481;-72
2022/08/01 01:50:56;;;;;;;3.22;2.30;;;;;;;17.88;100.00;95822.47;1022466;29;20070;-72
2022/08/01 01:51:27;;;;;;;4.65;2.00;;;;;;;17.74;100.00;95801.31;1021768;29;20397;-72
2022/08/01 01:51:58;;;;;;;4.15;2.33;;;;;;;17.82;100.00;95827.13;1022916;28;20594;-72
2022/08/01 01:52:28;;;;;;;2.20;2.00;;;;;;;17.84;100.00;95827.59;1022432;28;20031;-73
2022/08/01 01:52:59;;;;;;;2.78;2.08;;;;;;;17.84;100.00;95829.44;1026474;28;20026;-72
2022/08/01 01:53:29;;;;;;;2.97;2.20;;;;;;;17.81;100.00;95827.44;1022435;29;20027;-73
2022/08/01 01:53:59;;;;;;;3.85;2.50;;;;;;;17.75;100.00;95816.13;1026649;28;20018;-73
2022/08/01 01:54:33;;;;;;;2.47;2.15;;;;;;;17.84;100.00;95826.78;1029340;28;20010;-71
2022/08/01 01:55:05;;;;;;;7.50;2.20;;;;;;;17.79;100.00;95832.25;1026493;28;20097;-71
2022/08/01 01:55:37;;;;;;;3.88;2.50;;;;;;;17.78;100.00;95820.88;1022233;28;20023;-72
2022/08/01 01:56:07;;;;;;;5.63;2.30;;;;;;;17.82;100.00;95823.69;1022468;28;20114;-72
2022/08/01 01:56:48;;;;;;;2.47;1.92;;;;;;;17.84;100.00;95826.78;1018498;29;20445;-72
2022/08/01 01:57:18;;;;;;;3.17;2.13;;;;;;;17.90;100.00;95820.28;1022525;29;20605;-72
2022/08/01 01:57:49;;;;;;;3.15;2.85;;;;;;;17.85;100.00;95813.22;1024367;28;20031;-71
2022/08/01 01:58:20;;;;;;;3.00;2.00;;;;;;;17.85;100.00;95807.94;1022335;29;20023;-71
2022/08/01 01:58:53;;;;;;;3.47;2.58;;;;;;;17.88;100.00;95809.97;1014672;29;20027;-73
2022/08/01 01:59:29;;;;;;;3.33;2.10;;;;;;;17.86;100.00;95814.78;1022420;28;20022;-70
2022/08/01 01:59:59;;;;;;;2.60;2.00;;;;;;;17.94;100.00;95818.59;1018550;29;20021;-71
2022/08/01 02:00:29;;;;;;;5.47;2.30;;;;;;;17.92;100.00;95818.09;1018730;29;20044;-71
2022/08/01 02:01:01;;;;;;;2.38;2.17;;;;;;;17.91;100.00;95819.19;1014547;29;20023;-73
2022/08/01 02:01:32;;;;;;;2.83;1.98;;;;;;;17.93;100.00;95817.00;1021885;29;20024;-72
2022/08/01 02:02:04;;;;;;;2.58;2.38;;;;;;;17.92;100.00;95820.75;1014751;29;20605;-70
2022/08/01 02:02:36;;;;;;;3.03;2.00;;;;;;;17.87;100.00;95815.56;1018545;29;20035;-72
2022/08/01 02:03:07;;;;;;;4.13;2.15;;;;;;;17.84;100.00;95817.00;1022832;28;20180;-72
2022/08/01 02:03:38;;;;;;;2.80;2.20;;;;;;;17.83;100.00;95817.28;1026930;28;20018;-71
2022/08/01 02:04:08;;;;;;;4.10;2.22;;;;;;;17.89;100.00;95824.03;1018474;28;20122;-72
2022/08/01 02:04:43;;;;;;;2.58;2.25;;;;;;;17.92;100.00;95826.06;1020958;28;20026;-71
2022/08/01 02:05:13;;;;;;;4.45;2.28;;;;;;;17.92;100.00;95818.09;1026282;28;20631;-72
2022/08/01 02:05:44;;;;;;;2.70;2.25;;;;;;;17.94;100.00;95821.25;1026541;28;20105;-73
2022/08/01 02:06:14;;;;;;;3.95;2.00;;;;;;;17.98;100.00;95822.19;1024728;28;20086;-73
2022/08/01 02:06:46;;;;;;;3.58;2.13;;;;;;;17.99;100.00;95818.44;1022479;29;20113;-71
2022/08/01 02:07:22;;;;;;;2.20;2.00;;;;;;;17.95;100.00;95822.78;1022492;29;20509;-74
2022/08/01 02:07:52;;;;;;;2.65;1.90;;;;;;;17.85;100.00;95813.22;1018351;28;20062;-72
2022/08/01 02:08:23;;;;;;;2.97;2.30;;;;;;;17.86;100.00;95820.09;1022485;29;20035;-72
2022/08/01 02:08:53;;;;;;;4.45;2.35;;;;;;;17.88;100.00;95825.91;1018503;29;20032;-73
2022/08/01 02:09:24;;;;;;;2.63;2.20;;;;;;;18.02;100.00;95825.00;1018488;29;20047;-73
2022/08/01 02:09:54;;;;;;;2.88;2.35;;;;;;;17.97;100.00;95820.59;1029831;28;20065;-72
2022/08/01 02:10:25;;;;;;;3.25;2.08;;;;;;;17.92;100.00;95815.44;1025997;28;20050;-72
2022/08/01 02:11:48;;;;;;;5.72;2.30;;;;;;;17.89;100.00;95821.38;1022646;29;20019;-73
2022/08/01 02:12:18;;;;;;;3.60;2.67;;;;;;;17.86;100.00;95816.66;1029223;28;20031;-72
2022/08/01 02:12:49;;;;;;;2.63;2.42;;;;;;;17.90;100.00;95830.88;1026556;28;20035;-72
2022/08/01 02:13:20;;;;;;;2.97;2.03;;;;;;;17.88;100.00;95831.22;1026311;28;20026;-72
2022/08/01 02:13:58;;;;;;;2.30;2.10;;;;;;;17.86;100.00;95829.94;1026477;28;20492;-72
2022/08/01 02:14:28;;;;;;;4.22;2.17;;;;;;;17.79;100.00;95819.75;1025257;28;20026;-72
2022/08/01 02:14:59;;;;;;;3.00;2.10;;;;;;;17.79;100.00;95829.59;1026501;28;20023;-72
2022/08/01 02:15:30;;;;;;;2.55;2.10;;;;;;;17.74;100.00;95827.84;1026471;28;20051;-70
2022/08/01 02:16:00;;;;;;;3.47;2.30;;;;;;;17.70;100.00;95826.09;1022868;28;20151;-71
2022/08/01 02:16:33;;;;;;;3.75;2.28;;;;;;;17.76;100.00;95836.31;1022167;28;20500;-73
2022/08/01 02:17:04;;;;;;;5.13;2.10;;;;;;;17.75;100.00;95833.94;1015007;29;20546;-71
2022/08/01 02:17:36;;;;;;;3.22;2.63;;;;;;;17.76;100.00;95836.31;1015008;29;20044;-72
2022/08/01 02:18:07;;;;;;;3.17;2.08;;;;;;;17.76;100.00;95832.84;1018485;29;20418;-73
2022/08/01 02:18:38;;;;;;;2.65;2.13;;;;;;;17.76;100.00;95832.84;1018254;29;20043;-72
2022/08/01 02:19:09;;;;;;;3.20;2.38;;;;;;;17.75;100.00;95833.94;1019033;29;20028;-73
2022/08/01 02:19:40;;;;;;;4.25;2.25;;;;;;;17.70;100.00;95832.19;1026399;28;20064;-72
2022/08/01 02:20:11;;;;;;;3.95;2.20;;;;;;;17.73;100.00;95841.41;1026355;28;20113;-72
2022/08/01 02:20:41;;;;;;;4.10;1.85;;;;;;;17.72;100.00;95837.97;1018341;28;20107;-74
2022/08/01 02:21:13;;;;;;;5.10;2.38;;;;;;;17.66;100.00;95831.22;1017922;29;20024;-72
2022/08/01 02:21:53;;;;;;;2.53;2.05;;;;;;;17.75;100.00;95844.56;1022405;29;20569;-73
2022/08/01 02:22:30;;;;;;;4.45;1.88;;;;;;;17.72;100.00;95840.63;1026410;28;20042;-74
2022/08/01 02:23:07;;;;;;;2.92;2.10;;;;;;;17.72;100.00;95842.50;1024198;28;20026;-72
2022/08/01 02:23:37;;;;;;;2.47;1.92;;;;;;;17.71;100.00;95836.41;1026395;28;20035;-72
2022/08/01 02:24:39;;;;;;;2.92;2.28;;;;;;;17.70;100.00;95836.72;1022556;29;20035;-72
2022/08/01 02:25:21;;;;;;;2.42;2.00;;;;;;;17.66;100.00;95847.94;1021251;28;20444;-72
2022/08/01 02:25:53;;;;;;;1.92;1.83;;;;;;;17.63;100.00;95842.44;1024137;28;20102;-72
2022/08/01 02:26:23;;;;;;;4.43;2.10;;;;;;;17.60;100.00;95846.50;1022528;29;20030;-73
2022/08/01 02:26:54;;;;;;;2.35;2.15;;;;;;;17.52;100.00;95839.28;1020227;29;20086;-71
2022/08/01 02:27:28;;;;;;;2.33;2.05;;;;;;;17.59;100.00;95847.59;1022719;28;20555;-72
2022/08/01 02:28:03;;;;;;;4.00;2.33;;;;;;;17.56;100.00;95842.88;1023104;28;20019;-72
2022/08/01 02:28:56;;;;;;;2.85;2.08;;;;;;;17.59;100.00;95849.47;1023164;29;20023;-74
2022/08/01 02:29:50;;;;;;;2.90;2.35;;;;;;;17.54;100.00;95847.72;1021854;28;20529;-72
2022/08/01 02:30:20;;;;;;;2.30;2.08;;;;;;;17.49;100.00;95847.84;1025024;28;20027;-73
2022/08/01 02:30:50;;;;;;;2.60;2.05;;;;;;;17.50;100.00;95849.41;1027139;28;20027;-72
2022/08/01 02:31:21;;;;;;;2.95;2.20;;;;;;;17.52;100.00;95841.16;1026700;28;20030;-72
2022/08/01 02:31:54;;;;;;;2.55;2.00;;;;;;;17.47;100.00;95839.41;1031394;28;20030;-71
2022/08/01 02:32:36;;;;;;;3.13;2.28;;;;;;;17.62;100.00;95840.88;1027495;28;20031;-72
2022/08/01 02:33:16;;;;;;;2.03;1.83;;;;;;;17.55;100.00;95846.63;1027192;28;20077;-71
2022/08/01 02:33:52;;;;;;;2.72;2.20;;;;;;;17.49;100.00;95837.22;1019337;29;20039;-72
2022/08/01 02:34:22;;;;;;;3.53;2.28;;;;;;;17.53;100.00;95840.06;1027402;28;20043;-72